Time;durP1;ratioP1;P1;durP2;ratioP2;P2;SDS_P1;SDS_P2;PMS_P1;PMS_P2;Temp;Humidity;BMP_temperature;BMP_pressure;BME280_temperature;BME280_humidity;BME280_pressure;Samples;Min_cycle;Max_cycle;Signal;HPM_P1;HPM_P2
2022/10/09 00:00:45;;;;;;;17.33;7.23;;;;;;;;;;5086300;28;20202;-86
2022/10/09 00:03:12;;;;;;;13.93;6.17;;;;;;;;;;5079532;28;20225;-85
2022/10/09 00:05:41;;;;;;;13.00;6.70;;;;;;;;;;5080622;28;20208;-86
2022/10/09 00:08:09;;;;;;;11.13;6.23;;;;;;;;;;5067697;28;20272;-86
2022/10/09 00:10:41;;;;;;;12.60;6.13;;;;;;;;;;5082594;28;20202;-85
2022/10/09 00:13:08;;;;;;;13.33;6.00;;;;;;;;;;5087615;28;20332;-85
2022/10/09 00:15:38;;;;;;;13.13;5.83;;;;;;;;;;5082137;28;20206;-86
2022/10/09 00:18:06;;;;;;;12.40;6.20;;;;;;;;;;5079256;28;20213;-86
2022/10/09 00:20:36;;;;;;;18.23;6.30;;;;;;;;;;5077239;28;20202;-86
2022/10/09 00:23:05;;;;;;;13.60;5.90;;;;;;;;;;5068446;28;20225;-86
2022/10/09 00:25:32;;;;;;;17.63;5.33;;;;;;;;;;5081081;28;20489;-86
2022/10/09 00:28:00;;;;;;;12.23;5.90;;;;;;;;;;5080073;28;20209;-86
2022/10/09 00:30:27;;;;;;;12.77;5.80;;;;;;;;;;5080077;28;20328;-86
2022/10/09 00:32:55;;;;;;;12.43;5.83;;;;;;;;;;5081352;28;20226;-86
2022/10/09 00:35:22;;;;;;;13.00;5.83;;;;;;;;;;5061900;28;20542;-85
2022/10/09 00:37:50;;;;;;;12.53;5.60;;;;;;;;;;5077657;28;20256;-86
2022/10/09 00:40:19;;;;;;;11.70;5.70;;;;;;;;;;5082836;28;20418;-86
2022/10/09 00:42:47;;;;;;;13.57;5.80;;;;;;;;;;5079145;28;20202;-85
2022/10/09 00:45:19;;;;;;;12.20;6.47;;;;;;;;;;5082287;28;20212;-86
2022/10/09 00:47:48;;;;;;;18.50;5.70;;;;;;;;;;5066151;28;20241;-86
2022/10/09 00:50:17;;;;;;;15.33;5.73;;;;;;;;;;5082004;28;20289;-85
2022/10/09 00:52:44;;;;;;;15.20;5.87;;;;;;;;;;5081335;28;20207;-86
2022/10/09 00:55:13;;;;;;;16.43;6.83;;;;;;;;;;5067697;28;20448;-87
2022/10/09 00:57:43;;;;;;;10.03;6.07;;;;;;;;;;5062031;28;20198;-86
2022/10/09 01:00:11;;;;;;;16.43;6.00;;;;;;;;;;5079586;28;20206;-85
2022/10/09 01:02:39;;;;;;;12.57;6.13;;;;;;;;;;5079840;28;20208;-85
2022/10/09 01:05:06;;;;;;;11.97;5.67;;;;;;;;;;5058812;28;20456;-85
2022/10/09 01:07:39;;;;;;;14.40;5.90;;;;;;;;;;5079555;28;20695;-84
2022/10/09 01:10:12;;;;;;;14.80;6.03;;;;;;;;;;5079082;28;20243;-85
2022/10/09 01:12:44;;;;;;;11.77;5.80;;;;;;;;;;5079788;28;20206;-85
2022/10/09 01:15:16;;;;;;;12.07;5.13;;;;;;;;;;5079434;28;20631;-84
2022/10/09 01:17:48;;;;;;;11.40;5.27;;;;;;;;;;5080650;28;20194;-84
2022/10/09 01:20:39;;;;;;;13.57;5.67;;;;;;;;;;5075748;28;20201;-85
2022/10/09 01:23:19;;;;;;;14.03;5.10;;;;;;;;;;5065301;28;20221;-85
2022/10/09 01:25:51;;;;;;;15.73;5.97;;;;;;;;;;5078958;28;20452;-85
2022/10/09 01:28:20;;;;;;;16.87;6.13;;;;;;;;;;5078221;28;20202;-86
2022/10/09 01:30:48;;;;;;;11.50;5.73;;;;;;;;;;5063252;28;20205;-85
2022/10/09 01:33:16;;;;;;;11.97;6.13;;;;;;;;;;5078649;28;20225;-86
2022/10/09 01:35:45;;;;;;;16.43;5.93;;;;;;;;;;5070117;28;20198;-86
2022/10/09 01:38:13;;;;;;;14.83;6.07;;;;;;;;;;5081400;28;20202;-88
2022/10/09 01:40:41;;;;;;;17.40;6.57;;;;;;;;;;5083240;28;20288;-86
2022/10/09 01:43:08;;;;;;;14.30;6.03;;;;;;;;;;5080423;28;20512;-85
2022/10/09 01:45:41;;;;;;;12.63;5.83;;;;;;;;;;5082851;28;20212;-85
2022/10/09 01:48:12;;;;;;;20.23;5.33;;;;;;;;;;5067939;28;20714;-85
2022/10/09 01:50:41;;;;;;;15.17;5.33;;;;;;;;;;5082930;28;20546;-85
2022/10/09 01:53:10;;;;;;;18.73;6.07;;;;;;;;;;5084558;28;20225;-85
2022/10/09 01:55:43;;;;;;;13.33;5.53;;;;;;;;;;5085047;28;20447;-85
2022/10/09 01:58:11;;;;;;;13.40;5.63;;;;;;;;;;5063081;28;20284;-84
2022/10/09 02:00:43;;;;;;;14.10;5.03;;;;;;;;;;5083048;28;20458;-87
2022/10/09 02:03:12;;;;;;;12.30;5.73;;;;;;;;;;5063413;28;20228;-84
2022/10/09 02:05:39;;;;;;;12.17;5.37;;;;;;;;;;5082413;28;20213;-85
2022/10/09 02:08:07;;;;;;;11.77;5.87;;;;;;;;;;5084512;28;20231;-87
2022/10/09 02:10:35;;;;;;;11.80;5.20;;;;;;;;;;5078256;28;20205;-84
2022/10/09 02:13:04;;;;;;;9.17;5.43;;;;;;;;;;5080600;28;20225;-85
2022/10/09 02:15:33;;;;;;;10.30;4.57;;;;;;;;;;5079139;28;20483;-85
2022/10/09 02:18:07;;;;;;;10.50;4.60;;;;;;;;;;5061278;28;20961;-84
2022/10/09 02:20:36;;;;;;;14.90;5.30;;;;;;;;;;5080144;28;20675;-84
2022/10/09 02:23:05;;;;;;;11.40;4.50;;;;;;;;;;5080219;28;20226;-86
2022/10/09 02:25:33;;;;;;;10.87;4.97;;;;;;;;;;5079104;28;20505;-83
2022/10/09 02:28:02;;;;;;;11.93;4.43;;;;;;;;;;5082132;28;20479;-86
2022/10/09 02:30:32;;;;;;;8.07;4.40;;;;;;;;;;5078545;28;20204;-85
2022/10/09 02:33:06;;;;;;;11.40;4.63;;;;;;;;;;5082259;28;20582;-86
2022/10/09 02:35:33;;;;;;;12.37;4.13;;;;;;;;;;5084169;28;20193;-86
2022/10/09 02:38:01;;;;;;;11.90;4.97;;;;;;;;;;5083556;28;20495;-86
2022/10/09 02:40:28;;;;;;;10.47;4.77;;;;;;;;;;5083176;28;20674;-86
2022/10/09 02:42:55;;;;;;;7.17;4.27;;;;;;;;;;5079408;28;20229;-84
2022/10/09 02:45:22;;;;;;;15.33;5.20;;;;;;;;;;5067234;28;20214;-84
2022/10/09 02:47:51;;;;;;;10.23;4.70;;;;;;;;;;5082736;28;20214;-85
2022/10/09 02:50:20;;;;;;;12.47;4.70;;;;;;;;;;5068511;28;20209;-88
2022/10/09 02:52:47;;;;;;;10.33;5.40;;;;;;;;;;5079192;28;20209;-86
2022/10/09 02:55:17;;;;;;;9.40;4.77;;;;;;;;;;5068979;28;20478;-85
2022/10/09 02:57:44;;;;;;;12.17;4.67;;;;;;;;;;5083843;28;20196;-85
2022/10/09 03:00:12;;;;;;;11.03;4.53;;;;;;;;;;5081581;28;20198;-85
2022/10/09 03:02:40;;;;;;;9.33;4.67;;;;;;;;;;5081752;28;20202;-85
2022/10/09 03:05:08;;;;;;;10.70;4.43;;;;;;;;;;5079762;28;20211;-85
2022/10/09 03:07:36;;;;;;;13.37;5.33;;;;;;;;;;5080788;28;20222;-85
2022/10/09 03:10:04;;;;;;;11.67;5.07;;;;;;;;;;5081908;28;20212;-86
2022/10/09 03:12:31;;;;;;;8.53;4.30;;;;;;;;;;5079474;28;20197;-87
2022/10/09 03:15:01;;;;;;;10.10;4.87;;;;;;;;;;5061194;28;20202;-85
2022/10/09 03:17:28;;;;;;;8.53;4.57;;;;;;;;;;5085457;28;20256;-86
2022/10/09 03:19:55;;;;;;;12.60;5.10;;;;;;;;;;5065780;28;20397;-85
2022/10/09 03:22:22;;;;;;;11.33;4.40;;;;;;;;;;5083319;28;21488;-85
2022/10/09 03:24:51;;;;;;;10.13;4.67;;;;;;;;;;5077010;28;20218;-85
2022/10/09 03:27:19;;;;;;;14.00;4.73;;;;;;;;;;5083802;28;20220;-85
2022/10/09 03:29:46;;;;;;;12.13;4.77;;;;;;;;;;5083549;28;20854;-86
2022/10/09 03:32:14;;;;;;;14.33;5.00;;;;;;;;;;5065544;28;20584;-88
2022/10/09 03:34:41;;;;;;;10.17;4.50;;;;;;;;;;5079052;28;20217;-85
2022/10/09 03:37:08;;;;;;;8.73;4.50;;;;;;;;;;5084246;28;20456;-87
2022/10/09 03:39:36;;;;;;;12.93;4.57;;;;;;;;;;5084483;28;20847;-88
2022/10/09 03:42:05;;;;;;;12.43;4.47;;;;;;;;;;5084180;28;20201;-85
2022/10/09 03:44:32;;;;;;;10.43;4.47;;;;;;;;;;5079370;28;20228;-87
2022/10/09 03:47:00;;;;;;;11.17;4.70;;;;;;;;;;5067046;28;20721;-89
2022/10/09 03:49:27;;;;;;;9.57;5.17;;;;;;;;;;5066500;28;20456;-85
2022/10/09 03:51:54;;;;;;;11.30;4.83;;;;;;;;;;5079310;28;20202;-85
2022/10/09 03:54:22;;;;;;;14.73;4.90;;;;;;;;;;5080106;28;20491;-85
2022/10/09 03:56:49;;;;;;;16.33;4.87;;;;;;;;;;5067224;28;20461;-85
2022/10/09 03:59:19;;;;;;;9.73;4.70;;;;;;;;;;5066443;28;20478;-85
2022/10/09 04:01:46;;;;;;;16.93;4.73;;;;;;;;;;5082632;28;20456;-85
2022/10/09 04:04:13;;;;;;;14.27;5.17;;;;;;;;;;5079677;28;20476;-85
2022/10/09 04:06:40;;;;;;;10.47;4.60;;;;;;;;;;5082306;28;20652;-84
2022/10/09 04:09:08;;;;;;;11.67;3.93;;;;;;;;;;5080435;28;21070;-84
2022/10/09 04:11:35;;;;;;;10.87;4.33;;;;;;;;;;5079649;28;21646;-84
2022/10/09 04:14:03;;;;;;;13.57;4.07;;;;;;;;;;5080956;28;20471;-85
2022/10/09 04:16:31;;;;;;;12.07;4.40;;;;;;;;;;5082904;28;20455;-85
2022/10/09 04:18:59;;;;;;;12.40;4.50;;;;;;;;;;5084455;28;20283;-84
2022/10/09 04:21:27;;;;;;;8.80;4.00;;;;;;;;;;5079326;28;20197;-84
2022/10/09 04:23:54;;;;;;;13.33;4.30;;;;;;;;;;5080468;28;20502;-85
2022/10/09 04:26:22;;;;;;;12.00;3.97;;;;;;;;;;5081829;28;20467;-85
2022/10/09 04:28:49;;;;;;;10.40;4.33;;;;;;;;;;5082391;28;20236;-85
2022/10/09 04:31:18;;;;;;;13.10;4.87;;;;;;;;;;5080512;28;20690;-85
2022/10/09 04:33:46;;;;;;;13.17;5.40;;;;;;;;;;5080862;28;20220;-85
2022/10/09 04:36:14;;;;;;;16.97;4.73;;;;;;;;;;5062460;28;20452;-85
2022/10/09 04:38:41;;;;;;;12.80;4.83;;;;;;;;;;5060691;28;20196;-84
2022/10/09 04:41:08;;;;;;;19.97;5.80;;;;;;;;;;5081371;28;20464;-84
2022/10/09 04:43:35;;;;;;;9.60;4.80;;;;;;;;;;5077296;28;20476;-85
2022/10/09 04:46:05;;;;;;;11.27;5.27;;;;;;;;;;5081179;28;20467;-85
2022/10/09 04:48:32;;;;;;;13.83;4.87;;;;;;;;;;5081303;28;20229;-85
2022/10/09 04:51:05;;;;;;;9.50;4.70;;;;;;;;;;5060675;28;21339;-85
2022/10/09 04:53:32;;;;;;;10.67;5.00;;;;;;;;;;5083889;28;20482;-86
2022/10/09 04:56:02;;;;;;;15.40;4.30;;;;;;;;;;5065387;28;20335;-85
2022/10/09 04:58:30;;;;;;;9.03;4.90;;;;;;;;;;5077827;28;20454;-85
2022/10/09 05:00:57;;;;;;;13.57;4.43;;;;;;;;;;5077391;28;20195;-85
2022/10/09 05:03:24;;;;;;;12.10;4.63;;;;;;;;;;5078153;28;20878;-85
2022/10/09 05:05:52;;;;;;;10.23;4.93;;;;;;;;;;5082947;28;20221;-84
2022/10/09 05:08:21;;;;;;;14.03;5.30;;;;;;;;;;5084527;28;20620;-85
2022/10/09 05:10:48;;;;;;;14.90;5.20;;;;;;;;;;5077052;28;20571;-85
2022/10/09 05:13:16;;;;;;;11.83;5.43;;;;;;;;;;5079963;28;20476;-85
2022/10/09 05:15:43;;;;;;;12.83;4.67;;;;;;;;;;5078788;28;20460;-86
2022/10/09 05:18:10;;;;;;;15.93;5.17;;;;;;;;;;5080171;28;20460;-86
2022/10/09 05:20:41;;;;;;;21.07;6.50;;;;;;;;;;5084604;28;20541;-85
2022/10/09 05:23:08;;;;;;;11.20;5.30;;;;;;;;;;5084803;28;20229;-85
2022/10/09 05:25:37;;;;;;;11.60;4.80;;;;;;;;;;5081016;28;20198;-85
2022/10/09 05:28:05;;;;;;;17.03;4.97;;;;;;;;;;5079049;28;20209;-85
2022/10/09 05:30:32;;;;;;;15.37;4.70;;;;;;;;;;5077377;28;20202;-87
2022/10/09 05:32:59;;;;;;;12.80;4.57;;;;;;;;;;5076816;28;20233;-85
2022/10/09 05:35:26;;;;;;;24.20;5.30;;;;;;;;;;5080245;28;20716;-86
2022/10/09 05:37:54;;;;;;;15.20;4.93;;;;;;;;;;5079494;28;20202;-86
2022/10/09 05:40:21;;;;;;;13.17;4.70;;;;;;;;;;5078471;28;20194;-86
2022/10/09 05:42:51;;;;;;;20.50;4.63;;;;;;;;;;5076314;28;20217;-85
2022/10/09 05:45:18;;;;;;;12.10;5.00;;;;;;;;;;5076314;28;20210;-86
2022/10/09 05:47:46;;;;;;;15.27;5.00;;;;;;;;;;5082299;28;20233;-85
2022/10/09 05:50:13;;;;;;;27.77;5.40;;;;;;;;;;5080788;28;20604;-85
2022/10/09 05:52:41;;;;;;;18.50;5.10;;;;;;;;;;5064530;28;20206;-87
2022/10/09 05:55:08;;;;;;;18.97;5.77;;;;;;;;;;5082160;28;20683;-86
2022/10/09 05:57:36;;;;;;;22.20;5.43;;;;;;;;;;5083726;28;20206;-87
2022/10/09 06:00:05;;;;;;;18.97;5.50;;;;;;;;;;5079433;28;20470;-87
2022/10/09 06:02:32;;;;;;;16.83;4.77;;;;;;;;;;5079503;28;20998;-86
2022/10/09 06:05:00;;;;;;;23.60;6.17;;;;;;;;;;5066092;28;20950;-85
2022/10/09 06:07:27;;;;;;;15.00;4.83;;;;;;;;;;5063006;28;20200;-86
2022/10/09 06:09:55;;;;;;;13.30;5.43;;;;;;;;;;5083354;28;20289;-85
2022/10/09 06:12:22;;;;;;;16.20;5.77;;;;;;;;;;5068162;28;21034;-85
2022/10/09 06:14:49;;;;;;;21.50;5.17;;;;;;;;;;5086134;28;20231;-88
2022/10/09 06:17:18;;;;;;;15.87;5.70;;;;;;;;;;5085312;28;20214;-88
2022/10/09 06:19:45;;;;;;;15.70;5.73;;;;;;;;;;5071821;28;20194;-88
2022/10/09 06:22:13;;;;;;;34.30;5.97;;;;;;;;;;5087551;28;20202;-88
2022/10/09 06:24:40;;;;;;;12.50;5.27;;;;;;;;;;5086933;28;20225;-87
2022/10/09 06:27:07;;;;;;;20.47;5.37;;;;;;;;;;5090820;28;20205;-88
2022/10/09 06:29:34;;;;;;;16.13;5.10;;;;;;;;;;5070704;28;20578;-88
2022/10/09 06:32:03;;;;;;;15.93;4.87;;;;;;;;;;5084286;28;20206;-88
2022/10/09 06:34:31;;;;;;;11.97;5.03;;;;;;;;;;5082915;28;20233;-88
2022/10/09 06:36:59;;;;;;;19.80;4.87;;;;;;;;;;5086541;28;20875;-88
2022/10/09 06:39:26;;;;;;;13.90;5.10;;;;;;;;;;5069407;28;20208;-88
2022/10/09 06:41:54;;;;;;;12.50;4.70;;;;;;;;;;5066348;28;20209;-87
2022/10/09 06:44:22;;;;;;;18.60;5.13;;;;;;;;;;5069010;28;20888;-89
2022/10/09 06:46:52;;;;;;;12.23;5.07;;;;;;;;;;5084849;28;20523;-89
2022/10/09 06:49:20;;;;;;;14.50;5.00;;;;;;;;;;5085229;28;20570;-88
2022/10/09 06:51:49;;;;;;;27.23;5.30;;;;;;;;;;5068925;28;20435;-89
2022/10/09 06:54:17;;;;;;;28.93;7.63;;;;;;;;;;5088143;28;20268;-88
2022/10/09 06:56:45;;;;;;;11.23;4.90;;;;;;;;;;5070355;28;20320;-89
2022/10/09 06:59:12;;;;;;;27.97;5.03;;;;;;;;;;5084894;28;20417;-89
2022/10/09 07:01:40;;;;;;;11.27;5.00;;;;;;;;;;5086418;28;20202;-88
2022/10/09 07:04:08;;;;;;;13.70;4.60;;;;;;;;;;5067816;28;20322;-89
2022/10/09 07:06:39;;;;;;;17.87;4.70;;;;;;;;;;5085862;28;20888;-87
2022/10/09 07:09:10;;;;;;;9.60;4.00;;;;;;;;;;5083039;28;20312;-87
2022/10/09 07:11:38;;;;;;;23.00;4.43;;;;;;;;;;5082261;28;20230;-88
2022/10/09 07:14:06;;;;;;;19.80;4.93;;;;;;;;;;5079684;28;20232;-89
2022/10/09 07:16:34;;;;;;;17.50;4.67;;;;;;;;;;5062662;28;20678;-88
2022/10/09 07:19:05;;;;;;;8.83;4.33;;;;;;;;;;5064406;28;20267;-87
2022/10/09 07:21:32;;;;;;;14.63;4.37;;;;;;;;;;5082846;28;20571;-88
2022/10/09 07:24:00;;;;;;;19.53;4.57;;;;;;;;;;5082679;28;20221;-87
2022/10/09 07:26:29;;;;;;;6.63;3.93;;;;;;;;;;5084085;28;20280;-88
2022/10/09 07:28:57;;;;;;;8.43;3.70;;;;;;;;;;5091715;28;20427;-89
2022/10/09 07:31:25;;;;;;;12.20;3.93;;;;;;;;;;5087682;28;20692;-89
2022/10/09 07:33:53;;;;;;;6.10;3.87;;;;;;;;;;5087042;28;20225;-89
2022/10/09 07:36:21;;;;;;;5.73;3.20;;;;;;;;;;5085729;28;20202;-88
2022/10/09 07:38:50;;;;;;;5.67;3.43;;;;;;;;;;5060044;28;20197;-89
2022/10/09 07:41:20;;;;;;;5.90;3.17;;;;;;;;;;5091725;28;20186;-91
2022/10/09 07:43:49;;;;;;;5.03;3.03;;;;;;;;;;5081834;28;20217;-90
2022/10/09 07:46:18;;;;;;;6.47;3.40;;;;;;;;;;5093810;28;20223;-90
2022/10/09 07:48:46;;;;;;;6.13;3.47;;;;;;;;;;5109977;28;20221;-89
2022/10/09 07:51:17;;;;;;;7.00;3.07;;;;;;;;;;5104407;28;20208;-90
2022/10/09 07:53:45;;;;;;;4.43;3.00;;;;;;;;;;5108772;28;20228;-90
2022/10/09 07:56:14;;;;;;;3.50;2.20;;;;;;;;;;5108575;28;20228;-90
2022/10/09 07:58:42;;;;;;;5.17;2.23;;;;;;;;;;5108243;28;20178;-90
2022/10/09 08:01:13;;;;;;;4.00;2.20;;;;;;;;;;5106712;28;20281;-90
2022/10/09 08:03:42;;;;;;;3.40;2.40;;;;;;;;;;5114146;28;20257;-89
2022/10/09 08:06:10;;;;;;;3.77;2.30;;;;;;;;;;5111982;28;20232;-90
2022/10/09 08:08:38;;;;;;;5.50;3.07;;;;;;;;;;5091708;28;20283;-90
2022/10/09 08:11:09;;;;;;;6.23;2.27;;;;;;;;;;5111497;28;20197;-89
2022/10/09 08:13:38;;;;;;;4.77;2.00;;;;;;;;;;5110478;28;20251;-91
2022/10/09 08:16:08;;;;;;;5.00;2.27;;;;;;;;;;5112364;28;20201;-90
2022/10/09 08:18:37;;;;;;;2.83;1.93;;;;;;;;;;5101158;28;20292;-90
2022/10/09 08:21:06;;;;;;;5.67;2.10;;;;;;;;;;5100705;28;20261;-90
2022/10/09 08:23:34;;;;;;;5.23;2.20;;;;;;;;;;5071265;28;20224;-90
2022/10/09 08:26:02;;;;;;;4.00;2.50;;;;;;;;;;5103003;28;20218;-90
2022/10/09 08:28:31;;;;;;;4.97;2.87;;;;;;;;;;5099298;28;20223;-90
2022/10/09 08:30:59;;;;;;;5.60;2.60;;;;;;;;;;5098518;28;20599;-90
2022/10/09 08:33:26;;;;;;;6.57;2.60;;;;;;;;;;5086789;28;20222;-93
2022/10/09 08:35:56;;;;;;;4.50;2.23;;;;;;;;;;5098801;28;20202;-91
2022/10/09 08:38:23;;;;;;;3.87;2.17;;;;;;;;;;5099165;28;20233;-85
2022/10/09 08:40:52;;;;;;;4.37;2.27;;;;;;;;;;5081605;28;20216;-90
2022/10/09 08:43:24;;;;;;;4.83;2.40;;;;;;;;;;5062767;28;20718;-86
2022/10/09 08:45:52;;;;;;;5.80;2.67;;;;;;;;;;5082454;28;20224;-90
2022/10/09 08:48:21;;;;;;;4.53;2.63;;;;;;;;;;5078441;28;20198;-86
2022/10/09 08:50:52;;;;;;;8.13;2.57;;;;;;;;;;5082234;28;20208;-87
2022/10/09 08:53:27;;;;;;;4.37;2.73;;;;;;;;;;5079084;28;20222;-86
2022/10/09 08:55:56;;;;;;;7.20;3.20;;;;;;;;;;5082624;28;20278;-87
2022/10/09 08:58:25;;;;;;;4.97;2.97;;;;;;;;;;5083231;28;20198;-86
2022/10/09 09:00:53;;;;;;;8.33;4.10;;;;;;;;;;5069248;28;20198;-86
2022/10/09 09:03:34;;;;;;;7.70;3.70;;;;;;;;;;5082350;28;20222;-85
2022/10/09 09:06:04;;;;;;;10.80;3.67;;;;;;;;;;5062503;28;20781;-85
2022/10/09 09:08:38;;;;;;;9.60;4.03;;;;;;;;;;5080268;28;20205;-85
2022/10/09 09:11:18;;;;;;;9.40;3.80;;;;;;;;;;5077630;28;20215;-86
2022/10/09 09:13:50;;;;;;;9.00;3.60;;;;;;;;;;5085753;28;20217;-85
2022/10/09 09:16:23;;;;;;;5.50;3.27;;;;;;;;;;5079511;28;20533;-85
2022/10/09 09:18:54;;;;;;;6.17;2.90;;;;;;;;;;5081435;28;20751;-87
2022/10/09 09:21:30;;;;;;;7.10;2.80;;;;;;;;;;5062072;28;20206;-85
2022/10/09 09:24:00;;;;;;;6.13;2.97;;;;;;;;;;5081598;28;20291;-86
2022/10/09 09:26:27;;;;;;;7.47;2.83;;;;;;;;;;5080501;28;20201;-86
2022/10/09 09:29:00;;;;;;;6.87;3.10;;;;;;;;;;5064645;28;20222;-88
2022/10/09 09:31:30;;;;;;;4.97;2.97;;;;;;;;;;5077220;28;20207;-86
2022/10/09 09:34:00;;;;;;;7.83;3.50;;;;;;;;;;5082663;28;20228;-85
2022/10/09 09:36:30;;;;;;;5.80;3.23;;;;;;;;;;5078687;28;20208;-87
2022/10/09 09:38:58;;;;;;;6.83;3.17;;;;;;;;;;5080696;28;20577;-86
2022/10/09 09:41:27;;;;;;;7.50;3.30;;;;;;;;;;5081764;28;20205;-85
2022/10/09 09:43:55;;;;;;;8.13;3.27;;;;;;;;;;5079019;28;20218;-86
2022/10/09 09:46:23;;;;;;;9.33;3.40;;;;;;;;;;5078272;28;20224;-86
2022/10/09 09:48:53;;;;;;;8.83;2.10;;;;;;;;;;5076785;28;20655;-85
2022/10/09 09:51:23;;;;;;;10.43;3.07;;;;;;;;;;5084444;28;20284;-88
2022/10/09 09:53:52;;;;;;;9.40;2.43;;;;;;;;;;5081000;28;20213;-87
2022/10/09 09:56:21;;;;;;;4.80;2.03;;;;;;;;;;5082882;28;20224;-88
2022/10/09 09:58:49;;;;;;;5.90;2.40;;;;;;;;;;5078388;28;20204;-86
2022/10/09 10:01:21;;;;;;;8.87;1.90;;;;;;;;;;5066978;28;20205;-88
2022/10/09 10:03:49;;;;;;;4.83;2.00;;;;;;;;;;5081545;28;20212;-87
2022/10/09 10:06:24;;;;;;;11.07;1.70;;;;;;;;;;5075447;28;20252;-87
2022/10/09 10:09:01;;;;;;;4.30;1.60;;;;;;;;;;5071745;28;21232;-86
2022/10/09 10:11:31;;;;;;;7.70;2.00;;;;;;;;;;5076331;28;21355;-86
2022/10/09 10:14:05;;;;;;;6.23;1.87;;;;;;;;;;5065097;28;20266;-87
2022/10/09 10:16:34;;;;;;;3.97;1.80;;;;;;;;;;5080959;28;20197;-91
2022/10/09 10:19:02;;;;;;;9.13;1.80;;;;;;;;;;5082790;28;20208;-88
2022/10/09 10:21:39;;;;;;;13.37;2.20;;;;;;;;;;5073041;28;20368;-86
2022/10/09 10:24:10;;;;;;;7.90;1.50;;;;;;;;;;5080149;28;20228;-86
2022/10/09 10:26:42;;;;;;;6.77;1.40;;;;;;;;;;5061935;28;20276;-85
2022/10/09 10:29:12;;;;;;;5.30;1.70;;;;;;;;;;5078988;28;20584;-86
2022/10/09 10:31:43;;;;;;;3.63;1.67;;;;;;;;;;5059180;28;20210;-88
2022/10/09 10:34:16;;;;;;;5.80;1.60;;;;;;;;;;5060055;28;20225;-85
2022/10/09 10:36:43;;;;;;;3.03;1.40;;;;;;;;;;5080144;28;20210;-91
2022/10/09 10:39:22;;;;;;;8.27;1.80;;;;;;;;;;5058721;28;20197;-84
2022/10/09 10:41:53;;;;;;;6.67;1.73;;;;;;;;;;5076840;28;20656;-92
2022/10/09 10:44:26;;;;;;;6.17;1.70;;;;;;;;;;5072145;28;20265;-86
2022/10/09 10:46:55;;;;;;;5.17;1.80;;;;;;;;;;5074818;28;20214;-86
2022/10/09 10:49:23;;;;;;;9.97;2.03;;;;;;;;;;5076283;28;20616;-85
2022/10/09 10:51:56;;;;;;;6.00;1.73;;;;;;;;;;5075768;28;20344;-86
2022/10/09 10:54:32;;;;;;;11.60;2.00;;;;;;;;;;5074611;28;20742;-84
2022/10/09 10:57:04;;;;;;;5.53;1.73;;;;;;;;;;5079795;28;20208;-91
2022/10/09 10:59:38;;;;;;;5.70;1.73;;;;;;;;;;5077016;28;20251;-87
2022/10/09 11:02:23;;;;;;;5.90;1.80;;;;;;;;;;5067069;28;20253;-86
2022/10/09 11:04:56;;;;;;;8.93;1.40;;;;;;;;;;5068254;28;20699;-85
2022/10/09 11:07:30;;;;;;;8.10;1.60;;;;;;;;;;5080610;28;20206;-84
2022/10/09 11:10:00;;;;;;;8.50;2.00;;;;;;;;;;5078263;28;20213;-84
2022/10/09 11:12:34;;;;;;;7.73;1.90;;;;;;;;;;5079634;28;20198;-85
2022/10/09 11:15:06;;;;;;;3.33;1.70;;;;;;;;;;5081324;28;20217;-85
2022/10/09 11:17:37;;;;;;;8.30;2.20;;;;;;;;;;5063353;28;20206;-85
2022/10/09 11:20:11;;;;;;;6.73;1.87;;;;;;;;;;5061917;28;20197;-84
2022/10/09 11:22:50;;;;;;;5.40;1.90;;;;;;;;;;5080212;28;20213;-84
2022/10/09 11:25:28;;;;;;;5.43;1.40;;;;;;;;;;5073953;28;20554;-84
2022/10/09 11:27:59;;;;;;;6.73;1.60;;;;;;;;;;5076903;28;20198;-83
2022/10/09 11:30:27;;;;;;;3.80;1.43;;;;;;;;;;5067332;28;20706;-85
2022/10/09 11:32:58;;;;;;;4.77;1.47;;;;;;;;;;5077867;28;20222;-83
2022/10/09 11:35:26;;;;;;;6.80;1.40;;;;;;;;;;5076212;28;20199;-86
2022/10/09 11:37:58;;;;;;;6.20;1.57;;;;;;;;;;5079893;28;20284;-82
2022/10/09 11:40:27;;;;;;;4.63;1.70;;;;;;;;;;5077088;28;20741;-81
2022/10/09 11:42:57;;;;;;;4.63;1.53;;;;;;;;;;5080596;28;20227;-81
2022/10/09 11:45:30;;;;;;;4.43;1.50;;;;;;;;;;5059853;28;20217;-82
2022/10/09 11:48:02;;;;;;;3.63;1.20;;;;;;;;;;5078191;28;20202;-84
2022/10/09 11:50:43;;;;;;;2.13;1.17;;;;;;;;;;5081003;28;20217;-84
2022/10/09 11:53:12;;;;;;;3.23;1.17;;;;;;;;;;5074376;28;20249;-85
2022/10/09 11:55:39;;;;;;;3.83;1.30;;;;;;;;;;5059155;28;20661;-85
2022/10/09 11:58:23;;;;;;;4.43;1.57;;;;;;;;;;5075784;28;20212;-84
2022/10/09 12:00:54;;;;;;;5.57;1.53;;;;;;;;;;5078579;28;20659;-85
2022/10/09 12:03:32;;;;;;;2.33;1.10;;;;;;;;;;5071341;28;20751;-85
2022/10/09 12:06:04;;;;;;;3.90;1.20;;;;;;;;;;5074495;28;20739;-86
2022/10/09 12:08:31;;;;;;;5.63;1.10;;;;;;;;;;5057056;28;20202;-84
2022/10/09 12:10:59;;;;;;;4.30;0.90;;;;;;;;;;5076322;28;20243;-85
2022/10/09 12:13:31;;;;;;;3.07;1.17;;;;;;;;;;5069314;28;20308;-84
2022/10/09 12:16:00;;;;;;;2.67;1.00;;;;;;;;;;5072059;28;20567;-83
2022/10/09 12:18:29;;;;;;;2.40;1.00;;;;;;;;;;5067414;28;20202;-86
2022/10/09 12:20:58;;;;;;;4.03;0.80;;;;;;;;;;5072639;28;20567;-85
2022/10/09 12:23:26;;;;;;;3.80;1.10;;;;;;;;;;5057972;28;20230;-83
2022/10/09 12:25:54;;;;;;;5.53;1.10;;;;;;;;;;5068350;28;20786;-84
2022/10/09 12:28:27;;;;;;;2.77;1.23;;;;;;;;;;5074189;28;20224;-86
2022/10/09 12:30:56;;;;;;;3.63;1.30;;;;;;;;;;5077033;28;20227;-85
2022/10/09 12:33:27;;;;;;;3.40;0.90;;;;;;;;;;5069946;28;20229;-87
2022/10/09 12:36:03;;;;;;;2.67;1.07;;;;;;;;;;5072008;28;20202;-85
2022/10/09 12:38:31;;;;;;;2.53;1.37;;;;;;;;;;5076056;28;20198;-85
2022/10/09 12:41:00;;;;;;;7.53;1.20;;;;;;;;;;5077077;28;20736;-84
2022/10/09 12:43:28;;;;;;;5.93;1.40;;;;;;;;;;5061280;28;20218;-87
2022/10/09 12:45:55;;;;;;;3.47;1.10;;;;;;;;;;5061058;28;20259;-86
2022/10/09 12:48:24;;;;;;;3.17;1.13;;;;;;;;;;5057630;28;20205;-86
2022/10/09 12:50:56;;;;;;;5.03;1.50;;;;;;;;;;5057776;28;20221;-84
2022/10/09 12:53:24;;;;;;;13.10;2.37;;;;;;;;;;5078696;28;20226;-88
2022/10/09 12:55:53;;;;;;;7.07;1.40;;;;;;;;;;5076925;28;20664;-85
2022/10/09 12:58:22;;;;;;;7.30;1.03;;;;;;;;;;5064418;28;20209;-86
2022/10/09 13:00:50;;;;;;;3.80;1.63;;;;;;;;;;5060048;28;20672;-84
2022/10/09 13:03:25;;;;;;;3.63;1.37;;;;;;;;;;5075433;28;20222;-85
2022/10/09 13:05:57;;;;;;;4.63;1.30;;;;;;;;;;5077970;28;20671;-81
2022/10/09 13:08:27;;;;;;;3.13;1.30;;;;;;;;;;5074608;28;20206;-82
2022/10/09 13:10:55;;;;;;;3.67;1.17;;;;;;;;;;5059062;28;20236;-89
2022/10/09 13:13:24;;;;;;;3.80;1.27;;;;;;;;;;5075111;28;20324;-87
2022/10/09 13:15:59;;;;;;;3.50;1.07;;;;;;;;;;5058725;28;20205;-87
2022/10/09 13:18:26;;;;;;;3.10;1.30;;;;;;;;;;5077792;28;20209;-86
2022/10/09 13:21:03;;;;;;;3.70;1.10;;;;;;;;;;5061888;28;20250;-86
2022/10/09 13:23:31;;;;;;;4.33;0.97;;;;;;;;;;5075743;28;20801;-87
2022/10/09 13:25:59;;;;;;;4.83;1.53;;;;;;;;;;5078878;28;20221;-84
2022/10/09 13:28:27;;;;;;;6.67;1.00;;;;;;;;;;5082553;28;20201;-84
2022/10/09 13:30:54;;;;;;;2.70;1.13;;;;;;;;;;5081872;28;20221;-82
2022/10/09 13:33:21;;;;;;;6.63;1.20;;;;;;;;;;5078311;28;20226;-86
2022/10/09 13:35:48;;;;;;;4.10;1.10;;;;;;;;;;5082655;28;20201;-84
2022/10/09 13:38:19;;;;;;;1.20;0.90;;;;;;;;;;5078241;28;20217;-84
2022/10/09 13:40:46;;;;;;;3.80;1.10;;;;;;;;;;5062407;28;20663;-84
2022/10/09 13:43:19;;;;;;;3.93;1.30;;;;;;;;;;5075162;28;20304;-85
2022/10/09 13:45:46;;;;;;;3.67;0.93;;;;;;;;;;5062161;28;20256;-84
2022/10/09 13:48:13;;;;;;;2.67;1.20;;;;;;;;;;5076699;28;20201;-84
2022/10/09 13:50:41;;;;;;;2.07;0.93;;;;;;;;;;5076772;28;20217;-85
2022/10/09 13:53:08;;;;;;;4.23;1.20;;;;;;;;;;5044207;28;20304;-85
2022/10/09 13:55:37;;;;;;;4.20;1.30;;;;;;;;;;5063162;28;20276;-84
2022/10/09 13:58:05;;;;;;;2.50;1.30;;;;;;;;;;5061494;28;20285;-85
2022/10/09 14:00:32;;;;;;;2.77;0.90;;;;;;;;;;5059125;28;20235;-85
2022/10/09 14:03:00;;;;;;;6.70;1.70;;;;;;;;;;5071434;28;20230;-85
2022/10/09 14:05:27;;;;;;;3.23;1.23;;;;;;;;;;5078238;28;20683;-84
2022/10/09 14:07:55;;;;;;;6.93;1.03;;;;;;;;;;5056496;28;20206;-85
2022/10/09 14:10:22;;;;;;;6.13;1.17;;;;;;;;;;5076400;28;20681;-85
2022/10/09 14:12:51;;;;;;;4.47;1.13;;;;;;;;;;5078616;28;20217;-84
2022/10/09 14:15:19;;;;;;;5.83;1.00;;;;;;;;;;5076068;28;20201;-84
2022/10/09 14:17:46;;;;;;;4.30;1.37;;;;;;;;;;5061358;28;20197;-85
2022/10/09 14:20:14;;;;;;;4.23;1.10;;;;;;;;;;5074310;28;20197;-86
2022/10/09 14:22:41;;;;;;;2.40;1.03;;;;;;;;;;5056038;28;20657;-84
2022/10/09 14:25:09;;;;;;;3.43;1.10;;;;;;;;;;5074387;28;20213;-85
2022/10/09 14:27:36;;;;;;;2.33;1.00;;;;;;;;;;5075653;28;20209;-85
2022/10/09 14:30:06;;;;;;;2.53;1.13;;;;;;;;;;5060948;28;20205;-85
2022/10/09 14:32:34;;;;;;;1.33;0.83;;;;;;;;;;5061639;28;20282;-84
2022/10/09 14:35:03;;;;;;;6.13;1.43;;;;;;;;;;5083600;28;20205;-86
2022/10/09 14:37:30;;;;;;;2.87;1.10;;;;;;;;;;5082674;28;20198;-84
2022/10/09 14:39:57;;;;;;;6.60;1.10;;;;;;;;;;5084382;28;20217;-84
2022/10/09 14:42:25;;;;;;;3.87;1.27;;;;;;;;;;5079379;28;20212;-83
2022/10/09 14:44:53;;;;;;;2.87;1.00;;;;;;;;;;5086141;28;20228;-84
2022/10/09 14:47:22;;;;;;;4.57;1.00;;;;;;;;;;5078993;28;20206;-86